sensor_id;sensor_type;location;lat;lon;timestamp;P1;durP1;ratioP1;P2;durP2;ratioP2
8803;SDS011;4438;50.890;4.726;2024-02-26T00:00:37;3.50;;;2.10;;
8803;SDS011;4438;50.890;4.726;2024-02-26T00:03:04;2.17;;;1.97;;
8803;SDS011;4438;50.890;4.726;2024-02-26T00:05:30;2.07;;;1.83;;
8803;SDS011;4438;50.890;4.726;2024-02-26T00:07:56;2.10;;;1.90;;
8803;SDS011;4438;50.890;4.726;2024-02-26T00:10:22;3.77;;;2.03;;
8803;SDS011;4438;50.890;4.726;2024-02-26T00:12:49;1.93;;;1.77;;
8803;SDS011;4438;50.890;4.726;2024-02-26T00:15:15;2.23;;;1.73;;
8803;SDS011;4438;50.890;4.726;2024-02-26T00:17:41;2.87;;;2.20;;
8803;SDS011;4438;50.890;4.726;2024-02-26T00:20:07;2.77;;;1.80;;
8803;SDS011;4438;50.890;4.726;2024-02-26T00:22:34;2.13;;;1.87;;
8803;SDS011;4438;50.890;4.726;2024-02-26T00:25:00;2.10;;;1.83;;
8803;SDS011;4438;50.890;4.726;2024-02-26T00:27:26;3.43;;;1.73;;
8803;SDS011;4438;50.890;4.726;2024-02-26T00:29:52;2.47;;;2.27;;
8803;SDS011;4438;50.890;4.726;2024-02-26T00:32:18;2.97;;;2.17;;
8803;SDS011;4438;50.890;4.726;2024-02-26T00:34:44;3.30;;;1.83;;
8803;SDS011;4438;50.890;4.726;2024-02-26T00:37:10;2.63;;;1.70;;
8803;SDS011;4438;50.890;4.726;2024-02-26T00:39:36;3.50;;;2.10;;
8803;SDS011;4438;50.890;4.726;2024-02-26T00:42:02;2.47;;;2.27;;
8803;SDS011;4438;50.890;4.726;2024-02-26T00:44:28;2.77;;;2.17;;
8803;SDS011;4438;50.890;4.726;2024-02-26T00:46:54;3.13;;;2.20;;
8803;SDS011;4438;50.890;4.726;2024-02-26T00:49:20;2.97;;;2.07;;
8803;SDS011;4438;50.890;4.726;2024-02-26T00:51:47;4.53;;;2.20;;
8803;SDS011;4438;50.890;4.726;2024-02-26T00:54:13;2.50;;;2.00;;
8803;SDS011;4438;50.890;4.726;2024-02-26T00:56:39;3.13;;;2.03;;
8803;SDS011;4438;50.890;4.726;2024-02-26T00:59:05;4.23;;;2.00;;
8803;SDS011;4438;50.890;4.726;2024-02-26T01:01:31;2.43;;;2.20;;
8803;SDS011;4438;50.890;4.726;2024-02-26T01:03:57;2.33;;;2.10;;
8803;SDS011;4438;50.890;4.726;2024-02-26T01:06:23;2.30;;;2.10;;
8803;SDS011;4438;50.890;4.726;2024-02-26T01:08:49;2.43;;;1.83;;
8803;SDS011;4438;50.890;4.726;2024-02-26T01:11:15;2.60;;;2.10;;
8803;SDS011;4438;50.890;4.726;2024-02-26T01:13:41;3.83;;;1.93;;
8803;SDS011;4438;50.890;4.726;2024-02-26T01:16:07;2.50;;;1.83;;
8803;SDS011;4438;50.890;4.726;2024-02-26T01:18:33;1.90;;;1.70;;
8803;SDS011;4438;50.890;4.726;2024-02-26T01:20:59;1.90;;;1.70;;
8803;SDS011;4438;50.890;4.726;2024-02-26T01:23:25;2.37;;;1.87;;
8803;SDS011;4438;50.890;4.726;2024-02-26T01:25:52;2.97;;;1.90;;
8803;SDS011;4438;50.890;4.726;2024-02-26T01:28:18;2.67;;;2.00;;
8803;SDS011;4438;50.890;4.726;2024-02-26T01:30:44;2.97;;;2.27;;
8803;SDS011;4438;50.890;4.726;2024-02-26T01:33:10;3.30;;;2.00;;
8803;SDS011;4438;50.890;4.726;2024-02-26T01:35:36;2.80;;;1.90;;
8803;SDS011;4438;50.890;4.726;2024-02-26T01:38:02;2.47;;;1.83;;
8803;SDS011;4438;50.890;4.726;2024-02-26T01:40:28;2.27;;;2.07;;
8803;SDS011;4438;50.890;4.726;2024-02-26T01:42:55;3.10;;;2.00;;
8803;SDS011;4438;50.890;4.726;2024-02-26T01:45:21;3.50;;;1.70;;
8803;SDS011;4438;50.890;4.726;2024-02-26T01:47:49;2.07;;;1.77;;
8803;SDS011;4438;50.890;4.726;2024-02-26T01:50:16;2.17;;;1.50;;
8803;SDS011;4438;50.890;4.726;2024-02-26T01:52:43;3.80;;;1.90;;
8803;SDS011;4438;50.890;4.726;2024-02-26T01:55:09;3.13;;;1.80;;
8803;SDS011;4438;50.890;4.726;2024-02-26T01:57:35;1.83;;;1.60;;
8803;SDS011;4438;50.890;4.726;2024-02-26T02:00:01;2.00;;;1.80;;
8803;SDS011;4438;50.890;4.726;2024-02-26T02:02:31;1.80;;;1.70;;
8803;SDS011;4438;50.890;4.726;2024-02-26T02:04:57;3.80;;;1.70;;
8803;SDS011;4438;50.890;4.726;2024-02-26T02:07:23;1.83;;;1.53;;
8803;SDS011;4438;50.890;4.726;2024-02-26T02:09:50;1.93;;;1.50;;
8803;SDS011;4438;50.890;4.726;2024-02-26T02:12:16;1.70;;;1.60;;
8803;SDS011;4438;50.890;4.726;2024-02-26T02:14:42;2.37;;;1.60;;
8803;SDS011;4438;50.890;4.726;2024-02-26T02:17:08;1.80;;;1.70;;
8803;SDS011;4438;50.890;4.726;2024-02-26T02:19:35;2.83;;;1.80;;
8803;SDS011;4438;50.890;4.726;2024-02-26T02:22:01;2.03;;;1.87;;
8803;SDS011;4438;50.890;4.726;2024-02-26T02:24:27;2.87;;;2.10;;
8803;SDS011;4438;50.890;4.726;2024-02-26T02:26:53;2.13;;;1.53;;
8803;SDS011;4438;50.890;4.726;2024-02-26T02:29:19;2.97;;;1.50;;
8803;SDS011;4438;50.890;4.726;2024-02-26T02:31:45;1.90;;;1.70;;
8803;SDS011;4438;50.890;4.726;2024-02-26T02:34:11;2.77;;;1.80;;
8803;SDS011;4438;50.890;4.726;2024-02-26T02:36:53;1.80;;;1.70;;
8803;SDS011;4438;50.890;4.726;2024-02-26T02:39:20;2.13;;;1.90;;
8803;SDS011;4438;50.890;4.726;2024-02-26T02:41:47;2.17;;;1.90;;
8803;SDS011;4438;50.890;4.726;2024-02-26T02:44:13;2.07;;;1.53;;
8803;SDS011;4438;50.890;4.726;2024-02-26T02:46:39;3.17;;;1.90;;
8803;SDS011;4438;50.890;4.726;2024-02-26T02:49:11;3.20;;;1.97;;
8803;SDS011;4438;50.890;4.726;2024-02-26T02:51:37;2.90;;;2.40;;
8803;SDS011;4438;50.890;4.726;2024-02-26T02:54:03;2.80;;;2.00;;
8803;SDS011;4438;50.890;4.726;2024-02-26T02:56:29;1.80;;;1.70;;
8803;SDS011;4438;50.890;4.726;2024-02-26T02:58:56;2.83;;;2.10;;
8803;SDS011;4438;50.890;4.726;2024-02-26T03:01:22;2.13;;;1.93;;
8803;SDS011;4438;50.890;4.726;2024-02-26T03:03:48;2.43;;;2.20;;
8803;SDS011;4438;50.890;4.726;2024-02-26T03:06:14;2.30;;;1.87;;
8803;SDS011;4438;50.890;4.726;2024-02-26T03:08:40;2.47;;;2.00;;
8803;SDS011;4438;50.890;4.726;2024-02-26T03:11:07;2.70;;;2.10;;
8803;SDS011;4438;50.890;4.726;2024-02-26T03:13:33;2.20;;;2.00;;
8803;SDS011;4438;50.890;4.726;2024-02-26T03:16:03;3.33;;;2.20;;
8803;SDS011;4438;50.890;4.726;2024-02-26T03:18:29;2.30;;;2.10;;
8803;SDS011;4438;50.890;4.726;2024-02-26T03:20:55;2.83;;;1.90;;
8803;SDS011;4438;50.890;4.726;2024-02-26T03:23:22;2.30;;;2.10;;
8803;SDS011;4438;50.890;4.726;2024-02-26T03:25:48;2.67;;;1.90;;
8803;SDS011;4438;50.890;4.726;2024-02-26T03:28:14;3.20;;;1.93;;
8803;SDS011;4438;50.890;4.726;2024-02-26T03:30:40;3.30;;;2.27;;
8803;SDS011;4438;50.890;4.726;2024-02-26T03:33:06;2.43;;;2.23;;
8803;SDS011;4438;50.890;4.726;2024-02-26T03:35:32;2.37;;;2.17;;
8803;SDS011;4438;50.890;4.726;2024-02-26T03:37:58;3.53;;;2.20;;
8803;SDS011;4438;50.890;4.726;2024-02-26T03:40:24;2.33;;;2.10;;
8803;SDS011;4438;50.890;4.726;2024-02-26T03:42:51;2.53;;;2.30;;
8803;SDS011;4438;50.890;4.726;2024-02-26T03:45:19;2.53;;;2.30;;
8803;SDS011;4438;50.890;4.726;2024-02-26T03:47:45;2.50;;;2.30;;
8803;SDS011;4438;50.890;4.726;2024-02-26T03:50:11;2.73;;;2.40;;
8803;SDS011;4438;50.890;4.726;2024-02-26T03:52:37;2.37;;;2.17;;
8803;SDS011;4438;50.890;4.726;2024-02-26T03:55:03;2.60;;;2.20;;
8803;SDS011;4438;50.890;4.726;2024-02-26T03:57:29;2.70;;;2.50;;
8803;SDS011;4438;50.890;4.726;2024-02-26T03:59:55;2.73;;;2.53;;
8803;SDS011;4438;50.890;4.726;2024-02-26T04:02:22;2.77;;;2.50;;
8803;SDS011;4438;50.890;4.726;2024-02-26T04:04:48;3.20;;;2.83;;
8803;SDS011;4438;50.890;4.726;2024-02-26T04:07:14;3.53;;;3.00;;
8803;SDS011;4438;50.890;4.726;2024-02-26T04:09:41;3.50;;;2.87;;
8803;SDS011;4438;50.890;4.726;2024-02-26T04:12:08;4.10;;;3.13;;
8803;SDS011;4438;50.890;4.726;2024-02-26T04:14:35;3.17;;;2.87;;
8803;SDS011;4438;50.890;4.726;2024-02-26T04:17:01;3.13;;;2.90;;
8803;SDS011;4438;50.890;4.726;2024-02-26T04:19:28;3.03;;;2.83;;
8803;SDS011;4438;50.890;4.726;2024-02-26T04:21:54;3.40;;;3.00;;
8803;SDS011;4438;50.890;4.726;2024-02-26T04:24:20;4.30;;;3.20;;
8803;SDS011;4438;50.890;4.726;2024-02-26T04:26:46;3.97;;;3.40;;
8803;SDS011;4438;50.890;4.726;2024-02-26T04:29:14;3.97;;;3.33;;
8803;SDS011;4438;50.890;4.726;2024-02-26T04:31:40;3.17;;;2.87;;
8803;SDS011;4438;50.890;4.726;2024-02-26T04:34:08;3.73;;;3.37;;
8803;SDS011;4438;50.890;4.726;2024-02-26T04:36:34;3.90;;;3.50;;
8803;SDS011;4438;50.890;4.726;2024-02-26T04:39:00;3.90;;;3.30;;
8803;SDS011;4438;50.890;4.726;2024-02-26T04:41:26;4.00;;;3.60;;
8803;SDS011;4438;50.890;4.726;2024-02-26T04:43:52;5.43;;;3.93;;
8803;SDS011;4438;50.890;4.726;2024-02-26T04:46:18;4.40;;;4.00;;
8803;SDS011;4438;50.890;4.726;2024-02-26T04:48:46;5.77;;;4.20;;
8803;SDS011;4438;50.890;4.726;2024-02-26T04:51:13;5.17;;;4.50;;
8803;SDS011;4438;50.890;4.726;2024-02-26T04:53:39;5.23;;;4.50;;
8803;SDS011;4438;50.890;4.726;2024-02-26T04:56:05;5.23;;;4.73;;
8803;SDS011;4438;50.890;4.726;2024-02-26T04:58:31;5.77;;;5.13;;
8803;SDS011;4438;50.890;4.726;2024-02-26T05:00:57;5.47;;;4.97;;
8803;SDS011;4438;50.890;4.726;2024-02-26T05:03:23;6.13;;;5.03;;
8803;SDS011;4438;50.890;4.726;2024-02-26T05:05:50;6.93;;;5.70;;
8803;SDS011;4438;50.890;4.726;2024-02-26T05:08:16;6.67;;;5.33;;
8803;SDS011;4438;50.890;4.726;2024-02-26T05:10:42;6.07;;;5.47;;
8803;SDS011;4438;50.890;4.726;2024-02-26T05:13:08;5.53;;;5.03;;
8803;SDS011;4438;50.890;4.726;2024-02-26T05:15:35;6.57;;;5.20;;
8803;SDS011;4438;50.890;4.726;2024-02-26T05:18:01;5.67;;;5.10;;
8803;SDS011;4438;50.890;4.726;2024-02-26T05:20:27;6.93;;;5.90;;
8803;SDS011;4438;50.890;4.726;2024-02-26T05:22:53;6.53;;;5.73;;
8803;SDS011;4438;50.890;4.726;2024-02-26T05:25:20;6.83;;;6.23;;
8803;SDS011;4438;50.890;4.726;2024-02-26T05:27:46;6.77;;;6.17;;
8803;SDS011;4438;50.890;4.726;2024-02-26T05:30:12;7.53;;;6.83;;
8803;SDS011;4438;50.890;4.726;2024-02-26T05:32:38;8.90;;;6.70;;
8803;SDS011;4438;50.890;4.726;2024-02-26T05:35:04;7.70;;;7.00;;
8803;SDS011;4438;50.890;4.726;2024-02-26T05:37:30;7.70;;;7.00;;
8803;SDS011;4438;50.890;4.726;2024-02-26T05:39:56;8.23;;;7.43;;
8803;SDS011;4438;50.890;4.726;2024-02-26T05:42:23;8.43;;;7.47;;
8803;SDS011;4438;50.890;4.726;2024-02-26T05:44:49;10.30;;;8.50;;
8803;SDS011;4438;50.890;4.726;2024-02-26T05:47:15;9.33;;;8.43;;
8803;SDS011;4438;50.890;4.726;2024-02-26T05:49:42;8.43;;;7.67;;
8803;SDS011;4438;50.890;4.726;2024-02-26T05:52:08;9.30;;;8.40;;
8803;SDS011;4438;50.890;4.726;2024-02-26T05:54:34;9.10;;;8.30;;
8803;SDS011;4438;50.890;4.726;2024-02-26T05:57:01;9.60;;;8.70;;
8803;SDS011;4438;50.890;4.726;2024-02-26T05:59:27;10.43;;;9.40;;
8803;SDS011;4438;50.890;4.726;2024-02-26T06:01:53;10.67;;;9.57;;
8803;SDS011;4438;50.890;4.726;2024-02-26T06:04:19;10.47;;;9.37;;
8803;SDS011;4438;50.890;4.726;2024-02-26T06:06:45;10.87;;;9.67;;
8803;SDS011;4438;50.890;4.726;2024-02-26T06:09:11;11.03;;;9.43;;
8803;SDS011;4438;50.890;4.726;2024-02-26T06:11:37;11.70;;;10.50;;
8803;SDS011;4438;50.890;4.726;2024-02-26T06:14:04;12.47;;;11.17;;
8803;SDS011;4438;50.890;4.726;2024-02-26T06:16:30;12.47;;;11.20;;
8803;SDS011;4438;50.890;4.726;2024-02-26T06:18:56;12.70;;;11.40;;
8803;SDS011;4438;50.890;4.726;2024-02-26T06:21:23;13.53;;;12.13;;
8803;SDS011;4438;50.890;4.726;2024-02-26T06:23:49;13.57;;;12.27;;
8803;SDS011;4438;50.890;4.726;2024-02-26T06:26:15;12.60;;;11.40;;
8803;SDS011;4438;50.890;4.726;2024-02-26T06:28:41;12.90;;;11.67;;
8803;SDS011;4438;50.890;4.726;2024-02-26T06:31:08;12.70;;;11.50;;
8803;SDS011;4438;50.890;4.726;2024-02-26T06:33:34;13.73;;;11.77;;
8803;SDS011;4438;50.890;4.726;2024-02-26T06:36:00;13.73;;;12.47;;
8803;SDS011;4438;50.890;4.726;2024-02-26T06:38:26;14.13;;;12.77;;
8803;SDS011;4438;50.890;4.726;2024-02-26T06:40:52;14.73;;;13.40;;
8803;SDS011;4438;50.890;4.726;2024-02-26T06:43:18;14.77;;;13.37;;
8803;SDS011;4438;50.890;4.726;2024-02-26T06:45:44;16.07;;;14.37;;
8803;SDS011;4438;50.890;4.726;2024-02-26T06:48:11;15.43;;;13.93;;
8803;SDS011;4438;50.890;4.726;2024-02-26T06:50:37;15.73;;;14.23;;
8803;SDS011;4438;50.890;4.726;2024-02-26T06:53:03;15.33;;;13.93;;
8803;SDS011;4438;50.890;4.726;2024-02-26T06:55:29;14.63;;;13.23;;
8803;SDS011;4438;50.890;4.726;2024-02-26T06:57:55;16.07;;;14.50;;
8803;SDS011;4438;50.890;4.726;2024-02-26T07:00:21;17.17;;;15.47;;
8803;SDS011;4438;50.890;4.726;2024-02-26T07:02:47;16.50;;;14.90;;
8803;SDS011;4438;50.890;4.726;2024-02-26T07:05:13;16.07;;;14.57;;
8803;SDS011;4438;50.890;4.726;2024-02-26T07:07:39;15.73;;;14.13;;
8803;SDS011;4438;50.890;4.726;2024-02-26T07:10:06;14.90;;;13.47;;
8803;SDS011;4438;50.890;4.726;2024-02-26T07:12:32;14.77;;;13.37;;
8803;SDS011;4438;50.890;4.726;2024-02-26T07:14:58;15.03;;;13.53;;
8803;SDS011;4438;50.890;4.726;2024-02-26T07:17:24;13.53;;;12.23;;
8803;SDS011;4438;50.890;4.726;2024-02-26T07:19:50;14.47;;;13.07;;
8803;SDS011;4438;50.890;4.726;2024-02-26T07:22:16;14.83;;;13.33;;
8803;SDS011;4438;50.890;4.726;2024-02-26T07:24:42;14.40;;;13.10;;
8803;SDS011;4438;50.890;4.726;2024-02-26T07:27:08;13.37;;;12.07;;
8803;SDS011;4438;50.890;4.726;2024-02-26T07:29:35;14.70;;;13.20;;
8803;SDS011;4438;50.890;4.726;2024-02-26T07:32:01;13.83;;;12.53;;
8803;SDS011;4438;50.890;4.726;2024-02-26T07:34:27;14.30;;;12.93;;
8803;SDS011;4438;50.890;4.726;2024-02-26T07:36:54;13.00;;;11.80;;
8803;SDS011;4438;50.890;4.726;2024-02-26T07:39:21;13.37;;;12.07;;
8803;SDS011;4438;50.890;4.726;2024-02-26T07:41:47;13.50;;;12.30;;
8803;SDS011;4438;50.890;4.726;2024-02-26T07:44:16;14.13;;;12.73;;
8803;SDS011;4438;50.890;4.726;2024-02-26T07:46:42;13.70;;;12.40;;
8803;SDS011;4438;50.890;4.726;2024-02-26T07:49:08;14.50;;;13.03;;
8803;SDS011;4438;50.890;4.726;2024-02-26T07:51:34;13.27;;;11.97;;
8803;SDS011;4438;50.890;4.726;2024-02-26T07:54:00;13.97;;;12.57;;
8803;SDS011;4438;50.890;4.726;2024-02-26T07:56:26;13.17;;;11.87;;
8803;SDS011;4438;50.890;4.726;2024-02-26T07:58:53;13.13;;;11.83;;
8803;SDS011;4438;50.890;4.726;2024-02-26T08:01:19;14.27;;;12.87;;
8803;SDS011;4438;50.890;4.726;2024-02-26T08:03:45;12.57;;;11.43;;
8803;SDS011;4438;50.890;4.726;2024-02-26T08:06:11;13.40;;;12.10;;
8803;SDS011;4438;50.890;4.726;2024-02-26T08:08:37;13.33;;;12.03;;
8803;SDS011;4438;50.890;4.726;2024-02-26T08:11:03;14.10;;;12.63;;
8803;SDS011;4438;50.890;4.726;2024-02-26T08:13:29;12.93;;;11.57;;
8803;SDS011;4438;50.890;4.726;2024-02-26T08:15:56;12.23;;;11.10;;
8803;SDS011;4438;50.890;4.726;2024-02-26T08:18:22;14.10;;;12.70;;
8803;SDS011;4438;50.890;4.726;2024-02-26T08:20:48;12.77;;;11.53;;
8803;SDS011;4438;50.890;4.726;2024-02-26T08:23:14;13.40;;;12.17;;
8803;SDS011;4438;50.890;4.726;2024-02-26T08:25:40;13.23;;;12.03;;
8803;SDS011;4438;50.890;4.726;2024-02-26T08:28:06;13.10;;;11.80;;
8803;SDS011;4438;50.890;4.726;2024-02-26T08:30:32;13.27;;;12.07;;
8803;SDS011;4438;50.890;4.726;2024-02-26T08:32:59;12.80;;;11.60;;
8803;SDS011;4438;50.890;4.726;2024-02-26T08:35:25;12.87;;;11.67;;
8803;SDS011;4438;50.890;4.726;2024-02-26T08:37:51;13.73;;;12.43;;
8803;SDS011;4438;50.890;4.726;2024-02-26T08:40:17;13.40;;;12.10;;
8803;SDS011;4438;50.890;4.726;2024-02-26T08:42:44;13.60;;;12.07;;
8803;SDS011;4438;50.890;4.726;2024-02-26T08:45:11;13.80;;;12.50;;
8803;SDS011;4438;50.890;4.726;2024-02-26T08:47:37;13.37;;;12.20;;
8803;SDS011;4438;50.890;4.726;2024-02-26T08:50:04;13.90;;;12.60;;
8803;SDS011;4438;50.890;4.726;2024-02-26T08:52:31;13.43;;;12.17;;
8803;SDS011;4438;50.890;4.726;2024-02-26T08:54:58;13.87;;;12.67;;
8803;SDS011;4438;50.890;4.726;2024-02-26T08:57:24;13.27;;;12.07;;
8803;SDS011;4438;50.890;4.726;2024-02-26T08:59:53;13.30;;;12.10;;
8803;SDS011;4438;50.890;4.726;2024-02-26T09:02:19;13.57;;;12.27;;
8803;SDS011;4438;50.890;4.726;2024-02-26T09:04:45;13.60;;;12.30;;
8803;SDS011;4438;50.890;4.726;2024-02-26T09:07:11;12.83;;;11.53;;
8803;SDS011;4438;50.890;4.726;2024-02-26T09:09:38;13.03;;;11.83;;
8803;SDS011;4438;50.890;4.726;2024-02-26T09:12:04;12.97;;;11.77;;
8803;SDS011;4438;50.890;4.726;2024-02-26T09:14:30;12.80;;;11.60;;
8803;SDS011;4438;50.890;4.726;2024-02-26T09:16:56;13.47;;;12.17;;
8803;SDS011;4438;50.890;4.726;2024-02-26T09:19:23;12.50;;;11.30;;
8803;SDS011;4438;50.890;4.726;2024-02-26T09:21:50;12.90;;;11.70;;
8803;SDS011;4438;50.890;4.726;2024-02-26T09:24:16;12.00;;;10.80;;
8803;SDS011;4438;50.890;4.726;2024-02-26T09:26:42;12.37;;;11.03;;
8803;SDS011;4438;50.890;4.726;2024-02-26T09:29:08;12.70;;;11.50;;
8803;SDS011;4438;50.890;4.726;2024-02-26T09:31:34;12.93;;;11.73;;
8803;SDS011;4438;50.890;4.726;2024-02-26T09:34:01;12.40;;;11.30;;
8803;SDS011;4438;50.890;4.726;2024-02-26T09:36:27;11.90;;;10.80;;
8803;SDS011;4438;50.890;4.726;2024-02-26T09:38:53;12.43;;;11.27;;
8803;SDS011;4438;50.890;4.726;2024-02-26T09:41:19;12.30;;;11.00;;
8803;SDS011;4438;50.890;4.726;2024-02-26T09:43:46;11.80;;;10.70;;
8803;SDS011;4438;50.890;4.726;2024-02-26T09:46:14;11.57;;;10.53;;
8803;SDS011;4438;50.890;4.726;2024-02-26T09:48:42;11.57;;;10.50;;
8803;SDS011;4438;50.890;4.726;2024-02-26T09:51:10;10.50;;;9.50;;
8803;SDS011;4438;50.890;4.726;2024-02-26T09:53:39;10.83;;;9.90;;
8803;SDS011;4438;50.890;4.726;2024-02-26T09:56:08;10.70;;;9.70;;
8803;SDS011;4438;50.890;4.726;2024-02-26T09:58:35;9.80;;;8.90;;
8803;SDS011;4438;50.890;4.726;2024-02-26T10:01:02;10.37;;;9.47;;
8803;SDS011;4438;50.890;4.726;2024-02-26T10:03:36;10.07;;;9.17;;
8803;SDS011;4438;50.890;4.726;2024-02-26T10:06:05;10.97;;;10.00;;
8803;SDS011;4438;50.890;4.726;2024-02-26T10:08:32;10.80;;;9.80;;
8803;SDS011;4438;50.890;4.726;2024-02-26T10:10:58;10.60;;;9.50;;
8803;SDS011;4438;50.890;4.726;2024-02-26T10:13:24;10.97;;;9.97;;
8803;SDS011;4438;50.890;4.726;2024-02-26T10:15:50;11.20;;;10.10;;
8803;SDS011;4438;50.890;4.726;2024-02-26T10:18:16;11.27;;;10.27;;
8803;SDS011;4438;50.890;4.726;2024-02-26T10:20:42;10.70;;;9.73;;
8803;SDS011;4438;50.890;4.726;2024-02-26T10:23:25;10.93;;;9.93;;
8803;SDS011;4438;50.890;4.726;2024-02-26T10:25:54;11.00;;;10.00;;
8803;SDS011;4438;50.890;4.726;2024-02-26T10:28:21;10.20;;;9.30;;
8803;SDS011;4438;50.890;4.726;2024-02-26T10:30:47;10.87;;;9.87;;
8803;SDS011;4438;50.890;4.726;2024-02-26T10:33:13;10.50;;;9.50;;
8803;SDS011;4438;50.890;4.726;2024-02-26T10:35:39;11.30;;;10.10;;
8803;SDS011;4438;50.890;4.726;2024-02-26T10:38:08;9.90;;;9.00;;
8803;SDS011;4438;50.890;4.726;2024-02-26T10:40:35;10.13;;;9.23;;
8803;SDS011;4438;50.890;4.726;2024-02-26T10:43:01;10.80;;;9.80;;
8803;SDS011;4438;50.890;4.726;2024-02-26T10:45:27;10.27;;;9.37;;
8803;SDS011;4438;50.890;4.726;2024-02-26T10:47:54;10.17;;;9.23;;
8803;SDS011;4438;50.890;4.726;2024-02-26T10:50:20;10.27;;;9.37;;
8803;SDS011;4438;50.890;4.726;2024-02-26T10:52:46;10.20;;;9.30;;
8803;SDS011;4438;50.890;4.726;2024-02-26T10:55:14;8.90;;;8.10;;
8803;SDS011;4438;50.890;4.726;2024-02-26T10:57:43;10.10;;;9.10;;
8803;SDS011;4438;50.890;4.726;2024-02-26T11:00:10;9.07;;;8.37;;
8803;SDS011;4438;50.890;4.726;2024-02-26T11:02:40;8.90;;;8.20;;
8803;SDS011;4438;50.890;4.726;2024-02-26T11:05:06;8.97;;;8.17;;
8803;SDS011;4438;50.890;4.726;2024-02-26T11:07:34;7.97;;;7.27;;
8803;SDS011;4438;50.890;4.726;2024-02-26T11:10:02;8.50;;;7.80;;
8803;SDS011;4438;50.890;4.726;2024-02-26T11:12:29;7.70;;;7.00;;
8803;SDS011;4438;50.890;4.726;2024-02-26T11:14:55;8.27;;;7.57;;
8803;SDS011;4438;50.890;4.726;2024-02-26T11:17:23;7.67;;;7.07;;
8803;SDS011;4438;50.890;4.726;2024-02-26T11:19:51;8.03;;;7.33;;
8803;SDS011;4438;50.890;4.726;2024-02-26T11:22:18;7.63;;;6.93;;
8803;SDS011;4438;50.890;4.726;2024-02-26T11:24:47;7.77;;;7.07;;
8803;SDS011;4438;50.890;4.726;2024-02-26T11:27:13;7.03;;;6.43;;
8803;SDS011;4438;50.890;4.726;2024-02-26T11:29:43;7.27;;;6.67;;
8803;SDS011;4438;50.890;4.726;2024-02-26T11:32:10;7.10;;;6.50;;
8803;SDS011;4438;50.890;4.726;2024-02-26T11:34:36;7.27;;;6.60;;
8803;SDS011;4438;50.890;4.726;2024-02-26T11:37:13;7.63;;;6.93;;
8803;SDS011;4438;50.890;4.726;2024-02-26T11:39:40;7.10;;;6.53;;
8803;SDS011;4438;50.890;4.726;2024-02-26T11:42:06;6.63;;;5.97;;
8803;SDS011;4438;50.890;4.726;2024-02-26T11:44:33;7.23;;;6.53;;
8803;SDS011;4438;50.890;4.726;2024-02-26T11:47:10;7.57;;;6.87;;
8803;SDS011;4438;50.890;4.726;2024-02-26T11:49:37;6.73;;;6.13;;
8803;SDS011;4438;50.890;4.726;2024-02-26T11:52:05;6.73;;;6.13;;
8803;SDS011;4438;50.890;4.726;2024-02-26T11:54:39;7.93;;;6.70;;
8803;SDS011;4438;50.890;4.726;2024-02-26T12:00:10;7.13;;;6.53;;
8803;SDS011;4438;50.890;4.726;2024-02-26T12:05:10;6.97;;;6.37;;
8803;SDS011;4438;50.890;4.726;2024-02-26T12:07:39;7.50;;;6.90;;
8803;SDS011;4438;50.890;4.726;2024-02-26T12:12:41;7.40;;;6.80;;
8803;SDS011;4438;50.890;4.726;2024-02-26T12:15:07;7.80;;;7.10;;
8803;SDS011;4438;50.890;4.726;2024-02-26T12:17:36;7.43;;;6.83;;
8803;SDS011;4438;50.890;4.726;2024-02-26T12:20:09;7.73;;;7.07;;
8803;SDS011;4438;50.890;4.726;2024-02-26T12:22:35;7.87;;;7.17;;
8803;SDS011;4438;50.890;4.726;2024-02-26T12:25:04;7.60;;;7.00;;
8803;SDS011;4438;50.890;4.726;2024-02-26T12:27:31;7.67;;;7.07;;
8803;SDS011;4438;50.890;4.726;2024-02-26T12:29:58;7.37;;;6.67;;
8803;SDS011;4438;50.890;4.726;2024-02-26T12:32:24;7.67;;;7.07;;
8803;SDS011;4438;50.890;4.726;2024-02-26T12:34:50;7.93;;;7.23;;
8803;SDS011;4438;50.890;4.726;2024-02-26T12:37:16;7.20;;;6.60;;
8803;SDS011;4438;50.890;4.726;2024-02-26T12:39:42;7.93;;;7.30;;
8803;SDS011;4438;50.890;4.726;2024-02-26T12:42:08;7.33;;;6.73;;
8803;SDS011;4438;50.890;4.726;2024-02-26T12:44:35;7.90;;;7.20;;
8803;SDS011;4438;50.890;4.726;2024-02-26T12:47:02;7.53;;;6.83;;
8803;SDS011;4438;50.890;4.726;2024-02-26T12:49:28;7.50;;;6.90;;
8803;SDS011;4438;50.890;4.726;2024-02-26T12:51:54;7.40;;;6.80;;
8803;SDS011;4438;50.890;4.726;2024-02-26T12:54:27;7.27;;;6.67;;
8803;SDS011;4438;50.890;4.726;2024-02-26T12:56:53;7.33;;;6.73;;
8803;SDS011;4438;50.890;4.726;2024-02-26T12:59:19;7.13;;;6.53;;
8803;SDS011;4438;50.890;4.726;2024-02-26T13:01:45;7.30;;;6.70;;
8803;SDS011;4438;50.890;4.726;2024-02-26T13:04:11;7.43;;;6.73;;
8803;SDS011;4438;50.890;4.726;2024-02-26T13:06:37;7.40;;;6.80;;
8803;SDS011;4438;50.890;4.726;2024-02-26T13:09:03;7.50;;;6.90;;
8803;SDS011;4438;50.890;4.726;2024-02-26T13:11:31;7.47;;;6.87;;
8803;SDS011;4438;50.890;4.726;2024-02-26T13:13:58;7.57;;;6.87;;
8803;SDS011;4438;50.890;4.726;2024-02-26T13:16:24;7.00;;;6.40;;
8803;SDS011;4438;50.890;4.726;2024-02-26T13:18:51;6.93;;;6.27;;
8803;SDS011;4438;50.890;4.726;2024-02-26T13:21:17;7.63;;;7.03;;
8803;SDS011;4438;50.890;4.726;2024-02-26T13:23:48;7.77;;;7.17;;
8803;SDS011;4438;50.890;4.726;2024-02-26T13:26:15;7.40;;;6.80;;
8803;SDS011;4438;50.890;4.726;2024-02-26T13:28:41;7.77;;;7.17;;
8803;SDS011;4438;50.890;4.726;2024-02-26T13:31:07;8.07;;;7.37;;
8803;SDS011;4438;50.890;4.726;2024-02-26T13:33:34;8.67;;;7.97;;
8803;SDS011;4438;50.890;4.726;2024-02-26T13:36:00;8.53;;;7.80;;
8803;SDS011;4438;50.890;4.726;2024-02-26T13:38:27;8.83;;;8.10;;
8803;SDS011;4438;50.890;4.726;2024-02-26T13:40:56;8.73;;;7.93;;
8803;SDS011;4438;50.890;4.726;2024-02-26T13:43:22;9.07;;;8.27;;
8803;SDS011;4438;50.890;4.726;2024-02-26T13:45:48;9.27;;;8.37;;
8803;SDS011;4438;50.890;4.726;2024-02-26T13:48:14;10.17;;;9.27;;
8803;SDS011;4438;50.890;4.726;2024-02-26T13:50:41;9.60;;;8.70;;
8803;SDS011;4438;50.890;4.726;2024-02-26T13:53:10;9.50;;;8.70;;
8803;SDS011;4438;50.890;4.726;2024-02-26T13:55:37;10.17;;;9.37;;
8803;SDS011;4438;50.890;4.726;2024-02-26T13:58:03;9.93;;;9.03;;
8803;SDS011;4438;50.890;4.726;2024-02-26T14:00:29;10.70;;;9.60;;
8803;SDS011;4438;50.890;4.726;2024-02-26T14:03:00;11.30;;;10.30;;
8803;SDS011;4438;50.890;4.726;2024-02-26T14:05:26;10.93;;;9.83;;
8803;SDS011;4438;50.890;4.726;2024-02-26T14:07:52;11.27;;;10.17;;
8803;SDS011;4438;50.890;4.726;2024-02-26T14:10:19;11.20;;;10.20;;
8803;SDS011;4438;50.890;4.726;2024-02-26T14:12:45;11.63;;;10.60;;
8803;SDS011;4438;50.890;4.726;2024-02-26T14:15:11;11.63;;;10.57;;
8803;SDS011;4438;50.890;4.726;2024-02-26T14:17:38;12.50;;;11.30;;
8803;SDS011;4438;50.890;4.726;2024-02-26T14:20:04;12.33;;;11.13;;
8803;SDS011;4438;50.890;4.726;2024-02-26T14:22:30;12.47;;;11.37;;
8803;SDS011;4438;50.890;4.726;2024-02-26T14:24:56;12.70;;;11.50;;
8803;SDS011;4438;50.890;4.726;2024-02-26T14:27:23;12.83;;;11.57;;
8803;SDS011;4438;50.890;4.726;2024-02-26T14:29:49;13.07;;;11.87;;
8803;SDS011;4438;50.890;4.726;2024-02-26T14:32:15;13.17;;;11.93;;
8803;SDS011;4438;50.890;4.726;2024-02-26T14:34:42;12.17;;;10.97;;
8803;SDS011;4438;50.890;4.726;2024-02-26T14:37:08;12.53;;;11.10;;
8803;SDS011;4438;50.890;4.726;2024-02-26T14:39:34;13.33;;;11.93;;
8803;SDS011;4438;50.890;4.726;2024-02-26T14:42:01;13.10;;;11.73;;
8803;SDS011;4438;50.890;4.726;2024-02-26T14:44:27;13.20;;;11.83;;
8803;SDS011;4438;50.890;4.726;2024-02-26T14:46:53;12.60;;;11.40;;
8803;SDS011;4438;50.890;4.726;2024-02-26T14:49:19;12.50;;;11.23;;
8803;SDS011;4438;50.890;4.726;2024-02-26T14:51:45;11.87;;;10.63;;
8803;SDS011;4438;50.890;4.726;2024-02-26T14:54:12;10.87;;;9.77;;
8803;SDS011;4438;50.890;4.726;2024-02-26T14:56:38;11.10;;;10.00;;
8803;SDS011;4438;50.890;4.726;2024-02-26T14:59:04;10.53;;;9.53;;
8803;SDS011;4438;50.890;4.726;2024-02-26T15:01:30;11.33;;;10.23;;
8803;SDS011;4438;50.890;4.726;2024-02-26T15:03:56;10.60;;;9.50;;
8803;SDS011;4438;50.890;4.726;2024-02-26T15:06:22;10.47;;;9.40;;
8803;SDS011;4438;50.890;4.726;2024-02-26T15:08:48;9.97;;;8.97;;